createdAt,value
2018-04-11T00:00:06.683Z,54.79
2018-04-11T00:01:06.682Z,54.31
2018-04-11T00:02:06.682Z,54.88
2018-04-11T00:03:06.665Z,54.91
2018-04-11T00:04:06.658Z,54.40
2018-04-11T00:05:06.651Z,54.98
2018-04-11T00:06:06.649Z,54.98
2018-04-11T00:07:06.641Z,54.79
2018-04-11T00:08:06.637Z,54.60
2018-04-11T00:09:06.631Z,54.79
2018-04-11T00:10:06.624Z,54.79
2018-04-11T00:11:06.618Z,54.79
2018-04-11T00:12:06.612Z,54.91
2018-04-11T00:13:06.606Z,54.88
2018-04-11T00:14:06.602Z,55.01
2018-04-11T00:15:06.595Z,54.88
2018-04-11T00:16:06.587Z,54.79
2018-04-11T00:17:06.587Z,55.01
2018-04-11T00:18:06.579Z,54.98
2018-04-11T00:19:06.576Z,54.88
2018-04-11T00:20:06.571Z,54.88
2018-04-11T00:21:06.562Z,54.88
2018-04-11T00:22:06.555Z,54.88
2018-04-11T00:23:06.550Z,54.79
2018-04-11T00:24:06.546Z,54.98
2018-04-11T00:25:06.545Z,54.98
2018-04-11T00:26:06.570Z,54.88
2018-04-11T00:27:06.557Z,54.88
2018-04-11T00:28:06.545Z,54.69
2018-04-11T00:29:06.533Z,54.88
2018-04-11T00:30:06.511Z,54.79
2018-04-11T00:31:06.501Z,54.79
2018-04-11T00:32:06.493Z,54.69
2018-04-11T00:33:06.486Z,54.88
2018-04-11T00:34:06.482Z,54.60
2018-04-11T00:35:06.477Z,54.60
2018-04-11T00:36:06.468Z,54.79
2018-04-11T00:37:06.465Z,54.98
2018-04-11T00:38:06.457Z,55.08
2018-04-11T00:39:06.452Z,54.88
2018-04-11T00:40:06.451Z,55.27
2018-04-11T00:41:06.438Z,54.88
2018-04-11T00:42:06.438Z,55.27
2018-04-11T00:43:06.424Z,55.36
2018-04-11T00:44:06.421Z,55.18
2018-04-11T00:45:06.419Z,55.18
2018-04-11T00:46:06.408Z,55.27
2018-04-11T00:47:06.403Z,55.36
2018-04-11T00:48:06.400Z,55.36
2018-04-11T00:49:06.390Z,55.36
2018-04-11T00:50:06.393Z,55.18
2018-04-11T00:51:06.380Z,55.36
2018-04-11T00:52:06.379Z,55.27
2018-04-11T00:53:06.367Z,55.27
2018-04-11T00:54:06.366Z,55.27
2018-04-11T00:55:06.360Z,55.08
2018-04-11T00:56:06.348Z,54.98
2018-04-11T00:57:06.343Z,55.36
2018-04-11T00:58:06.336Z,55.18
2018-04-11T00:59:06.331Z,55.27
2018-04-11T01:00:06.325Z,55.36
2018-04-11T01:01:06.321Z,55.36
2018-04-11T01:02:06.316Z,55.36
2018-04-11T01:03:06.309Z,55.36
2018-04-11T01:04:06.310Z,55.36
2018-04-11T01:05:06.292Z,55.27
2018-04-11T01:06:06.293Z,55.18
2018-04-11T01:07:06.281Z,55.27
2018-04-11T01:08:06.285Z,55.18
2018-04-11T01:09:06.272Z,55.85
2018-04-11T01:10:06.262Z,55.18
2018-04-11T01:11:06.259Z,55.66
2018-04-11T01:12:06.255Z,55.94
2018-04-11T01:13:06.252Z,55.85
2018-04-11T01:14:06.241Z,55.85
2018-04-11T01:15:06.234Z,55.66
2018-04-11T01:16:06.227Z,55.56
2018-04-11T01:17:06.222Z,55.66
2018-04-11T01:18:06.225Z,55.66
2018-04-11T01:19:06.215Z,55.66
2018-04-11T01:20:06.205Z,55.85
2018-04-11T01:21:06.208Z,55.85
2018-04-11T01:22:06.200Z,55.85
2018-04-11T01:23:06.188Z,55.56
2018-04-11T01:24:06.184Z,55.76
2018-04-11T01:25:06.182Z,55.76
2018-04-11T01:26:06.170Z,55.76
2018-04-11T01:27:06.161Z,55.66
2018-04-11T01:28:06.157Z,55.66
2018-04-11T01:29:06.152Z,55.85
2018-04-11T01:30:06.149Z,55.36
2018-04-11T01:31:06.138Z,55.46
2018-04-11T01:32:06.135Z,55.46
2018-04-11T01:33:06.130Z,55.46
2018-04-11T01:34:06.121Z,55.46
2018-04-11T01:35:06.116Z,55.46
2018-04-11T01:36:06.109Z,55.36
2018-04-11T01:37:06.105Z,55.36
2018-04-11T01:38:06.099Z,55.56
2018-04-11T01:39:06.096Z,55.66
2018-04-11T01:40:06.088Z,55.66
2018-04-11T01:41:06.081Z,55.94
2018-04-11T01:42:06.071Z,55.76
2018-04-11T01:43:06.064Z,55.85
2018-04-11T01:44:06.061Z,55.66
2018-04-11T01:45:06.058Z,55.66
2018-04-11T01:46:06.050Z,55.66
2018-04-11T01:47:06.045Z,55.85
2018-04-11T01:48:06.041Z,55.76
2018-04-11T01:49:06.032Z,55.85
2018-04-11T01:50:06.030Z,55.66
2018-04-11T01:51:06.018Z,55.85
2018-04-11T01:52:06.015Z,55.94
2018-04-11T01:53:06.008Z,55.94
2018-04-11T01:54:06.004Z,55.94
2018-04-11T01:55:06.000Z,55.85
2018-04-11T01:56:05.990Z,55.94
2018-04-11T01:57:05.984Z,55.66
2018-04-11T01:58:05.975Z,55.56
2018-04-11T01:59:05.970Z,55.46
2018-04-11T02:00:05.968Z,55.76
2018-04-11T02:01:05.964Z,55.56
2018-04-11T02:02:05.962Z,55.94
2018-04-11T02:03:05.950Z,55.66
2018-04-11T02:04:05.945Z,55.66
2018-04-11T02:05:05.939Z,55.85
2018-04-11T02:06:05.937Z,55.85
2018-04-11T02:07:05.927Z,55.76
2018-04-11T02:08:05.925Z,55.66
2018-04-11T02:09:05.915Z,55.56
2018-04-11T02:10:05.912Z,55.46
2018-04-11T02:11:05.903Z,56.04
2018-04-11T02:12:05.900Z,56.04
2018-04-11T02:13:05.891Z,56.04
2018-04-11T02:14:05.885Z,56.14
2018-04-11T02:15:05.878Z,55.66
2018-04-11T02:16:05.875Z,55.66
2018-04-11T02:17:05.868Z,55.94
2018-04-11T02:18:05.860Z,55.85
2018-04-11T02:19:05.857Z,55.94
2018-04-11T02:20:05.850Z,55.85
2018-04-11T02:21:05.843Z,56.14
2018-04-11T02:22:05.836Z,55.85
2018-04-11T02:23:05.834Z,55.94
2018-04-11T02:24:05.830Z,55.94
2018-04-11T02:25:05.817Z,56.14
2018-04-11T02:26:05.811Z,55.94
2018-04-11T02:27:05.807Z,56.14
2018-04-11T02:28:05.801Z,56.14
2018-04-11T02:29:05.795Z,56.04
2018-04-11T02:30:05.789Z,56.14
2018-04-11T02:31:05.783Z,56.24
2018-04-11T02:32:05.822Z,56.24
2018-04-11T02:33:05.774Z,56.43
2018-04-11T02:34:05.768Z,56.14
2018-04-11T02:35:05.767Z,56.33
2018-04-11T02:36:05.751Z,56.33
2018-04-11T02:37:05.744Z,56.33
2018-04-11T02:38:05.740Z,56.24
2018-04-11T02:39:05.735Z,56.14
2018-04-11T02:40:05.736Z,56.04
2018-04-11T02:41:05.730Z,56.24
2018-04-11T02:42:05.723Z,56.24
2018-04-11T02:43:05.713Z,56.04
2018-04-11T02:44:05.740Z,56.14
2018-04-11T02:45:05.737Z,56.14
2018-04-11T02:46:05.702Z,56.14
2018-04-11T02:47:05.688Z,55.94
2018-04-11T02:48:05.685Z,56.04
2018-04-11T02:49:05.676Z,56.14
2018-04-11T02:50:05.676Z,56.14
2018-04-11T02:51:05.663Z,55.85
2018-04-11T02:52:05.662Z,56.04
2018-04-11T02:53:05.652Z,55.85
2018-04-11T02:54:05.647Z,56.11
2018-04-11T02:55:05.640Z,56.24
2018-04-11T02:56:05.635Z,56.49
2018-04-11T02:57:05.626Z,56.33
2018-04-11T02:58:05.621Z,56.33
2018-04-11T02:59:05.615Z,56.43
2018-04-11T03:00:05.608Z,56.33
2018-04-11T03:01:05.613Z,56.43
2018-04-11T03:02:05.597Z,56.43
2018-04-11T03:03:05.591Z,56.52
2018-04-11T03:04:05.590Z,56.52
2018-04-11T03:05:05.580Z,56.49
2018-04-11T03:06:05.576Z,56.33
2018-04-11T03:07:05.571Z,56.43
2018-04-11T03:08:05.563Z,56.52
2018-04-11T03:09:05.560Z,56.52
2018-04-11T03:10:05.550Z,56.40
2018-04-11T03:11:05.543Z,56.30
2018-04-11T03:12:05.539Z,56.59
2018-04-11T03:13:05.540Z,56.69
2018-04-11T03:14:05.528Z,56.59
2018-04-11T03:15:05.520Z,56.52
2018-04-11T03:16:05.513Z,56.43
2018-04-11T03:17:05.515Z,56.72
2018-04-11T03:18:05.504Z,56.49
2018-04-11T03:19:05.498Z,56.49
2018-04-11T03:20:05.491Z,56.49
2018-04-11T03:21:05.484Z,56.49
2018-04-11T03:22:05.488Z,56.59
2018-04-11T03:23:05.471Z,56.52
2018-04-11T03:24:05.464Z,56.40
2018-04-11T03:25:05.460Z,56.88
2018-04-11T03:26:05.454Z,57.07
2018-04-11T03:27:05.447Z,57.07
2018-04-11T03:28:05.441Z,57.07
2018-04-11T03:29:05.446Z,56.88
2018-04-11T03:30:05.429Z,56.91
2018-04-11T03:31:05.425Z,56.91
2018-04-11T03:32:05.417Z,56.59
2018-04-11T03:33:05.411Z,56.88
2018-04-11T03:34:05.397Z,57.07
2018-04-11T03:35:05.401Z,57.10
2018-04-11T03:36:05.394Z,56.88
2018-04-11T03:37:05.387Z,56.98
2018-04-11T03:38:05.385Z,56.88
2018-04-11T03:39:05.381Z,56.49
2018-04-11T03:40:05.368Z,57.68
2018-04-11T03:41:05.362Z,57.59
2018-04-11T03:42:05.378Z,57.17
2018-04-11T03:43:05.358Z,57.49
2018-04-11T03:44:05.343Z,57.49
2018-04-11T03:45:05.342Z,57.29
2018-04-11T03:46:05.327Z,57.20
2018-04-11T03:47:05.329Z,57.17
2018-04-11T03:48:05.321Z,57.39
2018-04-11T03:49:05.322Z,57.59
2018-04-11T03:50:05.310Z,57.59
2018-04-11T03:51:05.307Z,57.59
2018-04-11T03:52:05.296Z,57.68
2018-04-11T03:53:05.296Z,57.59
2018-04-11T03:54:05.288Z,57.78
2018-04-11T03:55:05.283Z,57.59
2018-04-11T03:56:05.271Z,57.87
2018-04-11T03:57:05.270Z,57.78
2018-04-11T03:58:05.264Z,57.59
2018-04-11T03:59:05.255Z,57.68
2018-04-11T04:00:05.245Z,57.87
2018-04-11T04:01:05.238Z,57.59
2018-04-11T04:02:05.233Z,57.20
2018-04-11T04:03:05.225Z,57.59
2018-04-11T04:04:05.218Z,57.78
2018-04-11T04:05:05.210Z,56.81
2018-04-11T04:06:05.204Z,56.72
2018-04-11T04:07:05.194Z,57.20
2018-04-11T04:08:05.191Z,56.62
2018-04-11T04:09:05.188Z,56.72
2018-04-11T04:10:05.182Z,56.91
2018-04-11T04:11:05.168Z,56.43
2018-04-11T04:12:05.166Z,56.43
2018-04-11T04:13:05.155Z,56.33
2018-04-11T04:14:05.148Z,56.43
2018-04-11T04:15:05.142Z,55.94
2018-04-11T04:16:05.147Z,56.04
2018-04-11T04:17:05.130Z,56.24
2018-04-11T04:18:05.119Z,56.24
2018-04-11T04:19:05.111Z,55.94
2018-04-11T04:20:05.102Z,56.14
2018-04-11T04:21:05.093Z,55.66
2018-04-11T04:22:05.088Z,55.56
2018-04-11T04:23:05.087Z,55.76
2018-04-11T04:24:05.076Z,55.66
2018-04-11T04:25:05.067Z,55.46
2018-04-11T04:26:05.059Z,55.56
2018-04-11T04:27:05.053Z,55.66
2018-04-11T04:28:05.045Z,55.66
2018-04-11T04:29:05.044Z,55.66
2018-04-11T04:30:05.029Z,55.76
2018-04-11T04:31:05.022Z,55.27
2018-04-11T04:32:05.016Z,55.27
2018-04-11T04:33:05.008Z,55.30
2018-04-11T04:34:05.000Z,55.59
2018-04-11T04:35:04.991Z,55.08
2018-04-11T04:36:04.984Z,55.18
2018-04-11T04:37:04.984Z,55.36
2018-04-11T04:38:04.970Z,55.46
2018-04-11T04:39:04.961Z,55.08
2018-04-11T04:40:04.955Z,55.27
2018-04-11T04:41:04.949Z,54.98
2018-04-11T04:42:04.945Z,54.88
2018-04-11T04:43:04.934Z,54.69
2018-04-11T04:44:04.924Z,54.60
2018-04-11T04:45:04.916Z,54.88
2018-04-11T04:46:04.906Z,54.79
2018-04-11T04:47:04.901Z,54.82
2018-04-11T04:48:04.902Z,54.88
2018-04-11T04:49:04.900Z,54.88
2018-04-11T04:50:04.879Z,54.79
2018-04-11T04:51:04.871Z,54.88
2018-04-11T04:52:04.865Z,54.79
2018-04-11T04:53:04.855Z,54.88
2018-04-11T04:54:04.851Z,54.79
2018-04-11T04:55:04.847Z,54.88
2018-04-11T04:56:04.838Z,54.40
2018-04-11T04:57:04.829Z,54.50
2018-04-11T04:58:04.821Z,54.31
2018-04-11T04:59:04.812Z,54.21
2018-04-11T05:00:04.806Z,54.14
2018-04-11T05:01:04.801Z,54.14
2018-04-11T05:02:04.803Z,54.24
2018-04-11T05:03:04.797Z,54.24
2018-04-11T05:04:04.776Z,54.14
2018-04-11T05:05:04.775Z,53.85
2018-04-11T05:06:04.760Z,54.21
2018-04-11T05:07:04.754Z,54.02
2018-04-11T05:08:04.748Z,54.02
2018-04-11T05:09:04.739Z,54.21
2018-04-11T05:10:04.731Z,54.21
2018-04-11T05:11:04.723Z,54.02
2018-04-11T05:12:04.718Z,53.73
2018-04-11T05:13:04.706Z,54.02
2018-04-11T05:14:04.700Z,53.73
2018-04-11T05:15:04.692Z,53.63
2018-04-11T05:16:04.705Z,53.66
2018-04-11T05:17:04.679Z,53.83
2018-04-11T05:18:04.671Z,53.53
2018-04-11T05:19:04.666Z,53.73
2018-04-11T05:20:04.669Z,53.83
2018-04-11T05:21:04.653Z,53.83
2018-04-11T05:22:04.657Z,54.02
2018-04-11T05:23:04.635Z,53.83
2018-04-11T05:24:04.627Z,53.85
2018-04-11T05:25:04.614Z,54.21
2018-04-11T05:26:04.608Z,53.63
2018-04-11T05:27:04.607Z,53.73
2018-04-11T05:28:04.594Z,53.73
2018-04-11T05:29:04.588Z,54.02
2018-04-11T05:30:04.581Z,53.92
2018-04-11T05:31:04.571Z,53.83
2018-04-11T05:32:04.563Z,54.02
2018-04-11T05:33:04.556Z,53.83
2018-04-11T05:34:04.553Z,54.21
2018-04-11T05:35:04.543Z,54.11
2018-04-11T05:36:04.536Z,53.83
2018-04-11T05:37:04.526Z,53.92
2018-04-11T05:38:04.517Z,53.63
2018-04-11T05:39:04.510Z,53.63
2018-04-11T05:40:04.543Z,53.63
2018-04-11T05:41:04.495Z,53.63
2018-04-11T05:42:04.487Z,53.53
2018-04-11T05:43:04.480Z,53.34
2018-04-11T05:44:04.476Z,53.37
2018-04-11T05:45:04.465Z,53.37
2018-04-11T05:46:04.457Z,53.66
2018-04-11T05:47:04.448Z,53.53
2018-04-11T05:48:04.446Z,53.63
2018-04-11T05:49:04.434Z,53.63
2018-04-11T05:50:04.428Z,53.53
2018-04-11T05:51:04.417Z,53.34
2018-04-11T05:52:04.412Z,53.53
2018-04-11T05:53:04.429Z,53.66
2018-04-11T05:54:04.398Z,53.73
2018-04-11T05:55:04.391Z,53.63
2018-04-11T05:56:04.380Z,53.73
2018-04-11T05:57:04.370Z,53.25
2018-04-11T05:58:04.366Z,53.25
2018-04-11T05:59:04.360Z,53.17
2018-04-11T06:00:04.350Z,53.37
2018-04-11T06:01:04.343Z,53.17
2018-04-11T06:02:04.335Z,53.08
2018-04-11T06:03:04.328Z,52.98
2018-04-11T06:04:04.320Z,53.08
2018-04-11T06:05:04.313Z,52.79
2018-04-11T06:06:04.312Z,52.89
2018-04-11T06:07:04.413Z,52.89
2018-04-11T06:08:04.291Z,52.69
2018-04-11T06:09:04.283Z,52.89
2018-04-11T06:10:04.278Z,52.89
2018-04-11T06:11:04.267Z,52.89
2018-04-11T06:12:04.258Z,52.89
2018-04-11T06:13:04.253Z,52.89
2018-04-11T06:14:04.245Z,52.76
2018-04-11T06:15:04.236Z,52.79
2018-04-11T06:16:04.225Z,52.86
2018-04-11T06:17:04.233Z,52.89
2018-04-11T06:18:04.212Z,52.76
2018-04-11T06:19:04.211Z,53.15
2018-04-11T06:20:04.211Z,53.05
2018-04-11T06:21:04.191Z,53.15
2018-04-11T06:22:04.184Z,52.95
2018-04-11T06:23:04.185Z,52.95
2018-04-11T06:24:04.164Z,53.05
2018-04-11T06:25:04.168Z,52.95
2018-04-11T06:26:04.159Z,52.67
2018-04-11T06:27:04.146Z,53.17
2018-04-11T06:28:04.197Z,53.17
2018-04-11T06:29:04.139Z,53.37
2018-04-11T06:30:04.132Z,52.79
2018-04-11T06:31:04.115Z,52.50
2018-04-11T06:32:04.108Z,52.50
2018-04-11T06:33:04.106Z,52.50
2018-04-11T06:34:04.095Z,52.57
2018-04-11T06:35:04.112Z,52.79
2018-04-11T06:36:04.075Z,52.69
2018-04-11T06:37:04.080Z,52.47
2018-04-11T06:38:04.079Z,52.95
2018-04-11T06:39:04.056Z,52.50
2018-04-11T06:40:04.049Z,52.79
2018-04-11T06:41:04.042Z,52.79
2018-04-11T06:42:04.142Z,52.50
2018-04-11T06:43:04.027Z,52.59
2018-04-11T06:44:04.020Z,52.69
2018-04-11T06:45:04.034Z,52.79
2018-04-11T06:46:04.011Z,52.59
2018-04-11T06:47:03.994Z,52.59
2018-04-11T06:48:03.989Z,52.50
2018-04-11T06:49:03.979Z,52.79
2018-04-11T06:50:03.977Z,52.79
2018-04-11T06:51:03.970Z,52.59
2018-04-11T06:52:03.958Z,52.79
2018-04-11T06:53:03.954Z,52.69
2018-04-11T06:54:03.943Z,52.79
2018-04-11T06:55:03.939Z,52.79
2018-04-11T06:56:03.928Z,52.50
2018-04-11T06:57:03.920Z,52.31
2018-04-11T06:58:03.913Z,52.31
2018-04-11T06:59:03.905Z,52.31
2018-04-11T07:00:03.899Z,52.50
2018-04-11T07:01:03.886Z,52.31
2018-04-11T07:02:03.885Z,52.31
2018-04-11T07:03:03.874Z,52.11
2018-04-11T07:04:03.876Z,52.50
2018-04-11T07:05:03.861Z,52.01
2018-04-11T07:06:03.854Z,52.21
2018-04-11T07:07:03.846Z,52.50
2018-04-11T07:08:03.840Z,52.50
2018-04-11T07:09:03.833Z,52.50
2018-04-11T07:10:03.824Z,52.11
2018-04-11T07:11:03.815Z,52.11
2018-04-11T07:12:03.806Z,52.31
2018-04-11T07:13:03.802Z,52.21
2018-04-11T07:14:03.799Z,52.50
2018-04-11T07:15:03.782Z,52.31
2018-04-11T07:16:03.779Z,52.40
2018-04-11T07:17:03.778Z,52.31
2018-04-11T07:18:03.765Z,52.21
2018-04-11T07:19:03.756Z,52.11
2018-04-11T07:20:03.748Z,52.33
2018-04-11T07:21:03.741Z,51.46
2018-04-11T07:22:03.735Z,51.37
2018-04-11T07:23:03.724Z,51.65
2018-04-11T07:24:03.719Z,51.56
2018-04-11T07:25:03.725Z,51.75
2018-04-11T07:26:03.704Z,51.85
2018-04-11T07:27:03.698Z,51.85
2018-04-11T07:28:03.691Z,51.75
2018-04-11T07:29:03.681Z,51.65
2018-04-11T07:30:03.678Z,51.85
2018-04-11T07:31:03.673Z,51.73
2018-04-11T07:32:03.654Z,51.75
2018-04-11T07:33:03.651Z,51.75
2018-04-11T07:34:03.652Z,51.75
2018-04-11T07:35:03.643Z,51.75
2018-04-11T07:36:03.630Z,51.75
2018-04-11T07:37:03.622Z,51.75
2018-04-11T07:38:03.647Z,51.65
2018-04-11T07:39:03.607Z,51.95
2018-04-11T07:40:03.651Z,51.95
2018-04-11T07:41:03.596Z,51.56
2018-04-11T07:42:03.589Z,51.56
2018-04-11T07:43:03.587Z,51.65
2018-04-11T07:44:03.571Z,51.65
2018-04-11T07:45:03.567Z,51.17
2018-04-11T07:46:03.607Z,51.17
2018-04-11T07:47:03.547Z,51.37
2018-04-11T07:48:03.550Z,51.17
2018-04-11T07:49:03.539Z,51.37
2018-04-11T07:50:03.528Z,51.37
2018-04-11T07:51:03.520Z,51.17
2018-04-11T07:52:03.513Z,51.37
2018-04-11T07:53:03.506Z,51.37
2018-04-11T07:54:03.499Z,51.37
2018-04-11T07:55:03.495Z,50.89
2018-04-11T07:56:03.486Z,50.98
2018-04-11T07:57:03.477Z,50.71
2018-04-11T07:58:03.475Z,50.62
2018-04-11T07:59:03.460Z,50.91
2018-04-11T08:00:03.455Z,50.52
2018-04-11T08:01:03.450Z,50.43
2018-04-11T08:02:03.448Z,50.52
2018-04-11T08:03:03.435Z,50.62
2018-04-11T08:04:03.427Z,50.04
2018-04-11T08:05:03.421Z,49.97
2018-04-11T08:06:03.412Z,49.97
2018-04-11T08:07:03.410Z,49.97
2018-04-11T08:08:03.399Z,49.77
2018-04-11T08:09:03.393Z,49.87
2018-04-11T08:10:03.425Z,49.68
2018-04-11T08:11:03.378Z,49.77
2018-04-11T08:12:03.373Z,49.29
2018-04-11T08:13:03.362Z,49.51
2018-04-11T08:14:03.357Z,49.58
2018-04-11T08:15:03.354Z,49.22
2018-04-11T08:16:03.349Z,49.12
2018-04-11T08:17:03.341Z,49.32
2018-04-11T08:18:03.333Z,49.22
2018-04-11T08:19:03.323Z,49.51
2018-04-11T08:20:03.318Z,48.74
2018-04-11T08:21:03.309Z,48.83
2018-04-11T08:22:03.307Z,48.83
2018-04-11T08:23:03.292Z,48.54
2018-04-11T08:24:03.290Z,48.74
2018-04-11T08:25:03.290Z,48.27
2018-04-11T08:26:03.275Z,48.74
2018-04-11T08:27:03.269Z,48.57
2018-04-11T08:28:03.262Z,48.47
2018-04-11T08:29:03.261Z,48.66
2018-04-11T08:30:03.253Z,48.37
2018-04-11T08:31:03.243Z,48.76
2018-04-11T08:32:03.244Z,48.37
2018-04-11T08:33:03.230Z,48.08
2018-04-11T08:34:03.223Z,48.18
2018-04-11T08:35:03.220Z,48.66
2018-04-11T08:36:03.214Z,48.27
2018-04-11T08:37:03.204Z,48.20
2018-04-11T08:38:03.199Z,48.01
2018-04-11T08:39:03.190Z,47.81
2018-04-11T08:40:03.185Z,47.72
2018-04-11T08:41:03.181Z,47.81
2018-04-11T08:42:03.173Z,47.91
2018-04-11T08:43:03.166Z,47.81
2018-04-11T08:44:03.178Z,47.81
2018-04-11T08:45:03.157Z,47.72
2018-04-11T08:46:03.148Z,48.01
2018-04-11T08:47:03.144Z,48.01
2018-04-11T08:48:03.134Z,47.62
2018-04-11T08:49:03.130Z,47.52
2018-04-11T08:50:03.122Z,47.62
2018-04-11T08:51:03.122Z,47.43
2018-04-11T08:52:03.120Z,47.62
2018-04-11T08:53:03.105Z,47.62
2018-04-11T08:54:03.100Z,47.62
2018-04-11T08:55:03.090Z,47.52
2018-04-11T08:56:03.089Z,46.97
2018-04-11T08:57:03.080Z,47.16
2018-04-11T08:58:03.074Z,47.26
2018-04-11T08:59:03.069Z,46.77
2018-04-11T09:00:03.062Z,47.26
2018-04-11T09:01:03.060Z,46.87
2018-04-11T09:02:03.050Z,46.77
2018-04-11T09:03:03.046Z,46.87
2018-04-11T09:04:03.038Z,46.77
2018-04-11T09:05:03.033Z,46.58
2018-04-11T09:06:03.025Z,46.97
2018-04-11T09:07:03.024Z,46.97
2018-04-11T09:08:03.013Z,46.67
2018-04-11T09:09:03.007Z,46.87
2018-04-11T09:10:03.008Z,46.87
2018-04-11T09:11:03.001Z,46.97
2018-04-11T09:12:02.990Z,46.77
2018-04-11T09:13:02.990Z,46.89
2018-04-11T09:14:02.982Z,46.97
2018-04-11T09:15:02.976Z,47.16
2018-04-11T09:16:02.967Z,46.67
2018-04-11T09:17:02.961Z,46.51
2018-04-11T09:18:02.957Z,46.51
2018-04-11T09:19:02.948Z,46.60
2018-04-11T09:20:02.942Z,46.41
2018-04-11T09:21:02.938Z,46.70
2018-04-11T09:22:02.937Z,46.80
2018-04-11T09:23:02.930Z,46.70
2018-04-11T09:24:02.922Z,46.70
2018-04-11T09:25:02.914Z,46.80
2018-04-11T09:26:02.929Z,46.60
2018-04-11T09:27:02.903Z,46.12
2018-04-11T09:28:02.903Z,46.12
2018-04-11T09:29:02.894Z,46.22
2018-04-11T09:30:02.899Z,46.22
2018-04-11T09:31:02.881Z,46.22
2018-04-11T09:32:02.875Z,45.92
2018-04-11T09:33:02.910Z,45.92
2018-04-11T09:34:02.863Z,45.83
2018-04-11T09:35:02.864Z,45.92
2018-04-11T09:36:02.855Z,45.92
2018-04-11T09:37:02.849Z,46.14
2018-04-11T09:38:02.899Z,46.14
2018-04-11T09:39:02.839Z,46.24
2018-04-11T09:40:02.832Z,46.24
2018-04-11T09:41:02.826Z,46.31
2018-04-11T09:42:02.823Z,46.22
2018-04-11T09:43:02.812Z,46.24
2018-04-11T09:44:02.816Z,46.14
2018-04-11T09:45:02.813Z,46.14
2018-04-11T09:46:02.797Z,46.24
2018-04-11T09:47:02.795Z,46.14
2018-04-11T09:48:02.788Z,46.43
2018-04-11T09:49:02.783Z,46.33
2018-04-11T09:50:02.778Z,45.75
2018-04-11T09:51:02.774Z,45.65
2018-04-11T09:52:02.765Z,45.85
2018-04-11T09:53:02.761Z,45.95
2018-04-11T09:54:02.759Z,45.95
2018-04-11T09:55:02.749Z,46.14
2018-04-11T09:56:02.742Z,46.04
2018-04-11T09:57:02.737Z,45.75
2018-04-11T09:58:02.729Z,45.95
2018-04-11T09:59:02.725Z,45.95
2018-04-11T10:00:02.726Z,45.95
2018-04-11T10:01:02.713Z,45.56
2018-04-11T10:02:02.721Z,45.75
2018-04-11T10:03:02.702Z,45.75
2018-04-11T10:04:02.702Z,45.47
2018-04-11T10:05:02.692Z,45.56
2018-04-11T10:06:02.690Z,45.37
2018-04-11T10:07:02.678Z,45.37
2018-04-11T10:08:02.678Z,45.17
2018-04-11T10:09:02.670Z,45.47
2018-04-11T10:10:02.666Z,45.07
2018-04-11T10:11:02.663Z,45.17
2018-04-11T10:12:02.656Z,45.17
2018-04-11T10:13:02.650Z,45.37
2018-04-11T10:14:02.646Z,45.39
2018-04-11T10:15:02.639Z,45.29
2018-04-11T10:16:02.633Z,45.20
2018-04-11T10:17:02.630Z,45.20
2018-04-11T10:18:02.654Z,45.20
2018-04-11T10:19:02.620Z,45.00
2018-04-11T10:20:02.619Z,45.20
2018-04-11T10:21:02.608Z,44.88
2018-04-11T10:22:02.611Z,45.10
2018-04-11T10:23:02.598Z,44.90
2018-04-11T10:24:02.591Z,44.90
2018-04-11T10:25:02.584Z,45.20
2018-04-11T10:26:02.581Z,45.20
2018-04-11T10:27:02.577Z,45.29
2018-04-11T10:28:02.579Z,45.29
2018-04-11T10:29:02.563Z,45.20
2018-04-11T10:30:02.562Z,45.20
2018-04-11T10:31:02.560Z,45.00
2018-04-11T10:32:02.577Z,45.29
2018-04-11T10:33:02.543Z,45.20
2018-04-11T10:34:02.541Z,45.20
2018-04-11T10:35:02.535Z,45.20
2018-04-11T10:36:02.530Z,45.29
2018-04-11T10:37:02.528Z,45.20
2018-04-11T10:38:02.568Z,44.90
2018-04-11T10:39:02.514Z,45.00
2018-04-11T10:40:02.510Z,44.61
2018-04-11T10:41:02.512Z,44.81
2018-04-11T10:42:02.507Z,44.71
2018-04-11T10:43:02.495Z,44.71
2018-04-11T10:44:02.492Z,44.90
2018-04-11T10:45:02.483Z,45.00
2018-04-11T10:46:02.481Z,45.00
2018-04-11T10:47:02.474Z,45.00
2018-04-11T10:48:02.467Z,45.00
2018-04-11T10:49:02.461Z,45.00
2018-04-11T10:50:02.465Z,45.00
2018-04-11T10:51:02.451Z,45.00
2018-04-11T10:52:02.449Z,45.00
2018-04-11T10:53:02.442Z,45.20
2018-04-11T10:54:02.439Z,45.29
2018-04-11T10:55:02.432Z,45.20
2018-04-11T10:56:02.428Z,44.61
2018-04-11T10:57:02.425Z,45.20
2018-04-11T10:58:02.418Z,45.20
2018-04-11T10:59:02.418Z,44.71
2018-04-11T11:00:02.408Z,44.61
2018-04-11T11:01:02.402Z,44.61
2018-04-11T11:02:02.400Z,44.42
2018-04-11T11:03:02.403Z,44.81
2018-04-11T11:04:02.386Z,44.42
2018-04-11T11:05:02.380Z,44.61
2018-04-11T11:06:02.375Z,44.61
2018-04-11T11:07:02.371Z,44.42
2018-04-11T11:08:02.369Z,44.61
2018-04-11T11:09:02.372Z,44.90
2018-04-11T11:10:02.356Z,44.90
2018-04-11T11:11:02.351Z,44.61
2018-04-11T11:12:02.347Z,44.51
2018-04-11T11:13:02.339Z,44.23
2018-04-11T11:14:02.341Z,44.32
2018-04-11T11:15:02.330Z,44.51
2018-04-11T11:16:02.326Z,44.42
2018-04-11T11:17:02.323Z,44.23
2018-04-11T11:18:02.339Z,44.23
2018-04-11T11:19:02.310Z,44.51
2018-04-11T11:20:02.317Z,44.42
2018-04-11T11:21:02.309Z,44.51
2018-04-11T11:22:02.300Z,44.32
2018-04-11T11:23:02.290Z,44.32
2018-04-11T11:24:02.288Z,44.13
2018-04-11T11:25:02.279Z,44.51
2018-04-11T11:26:02.278Z,44.23
2018-04-11T11:27:02.275Z,44.23
2018-04-11T11:28:02.267Z,44.03
2018-04-11T11:29:02.262Z,44.03
2018-04-11T11:30:02.256Z,44.23
2018-04-11T11:31:02.250Z,44.32
2018-04-11T11:32:02.246Z,44.23
2018-04-11T11:33:02.245Z,44.23
2018-04-11T11:34:02.235Z,44.32
2018-04-11T11:35:02.231Z,44.23
2018-04-11T11:36:02.223Z,44.42
2018-04-11T11:37:02.223Z,44.32
2018-04-11T11:38:02.215Z,44.13
2018-04-11T11:39:02.209Z,44.32
2018-04-11T11:40:02.226Z,44.32
2018-04-11T11:41:02.206Z,44.42
2018-04-11T11:42:02.220Z,44.23
2018-04-11T11:43:02.188Z,44.32
2018-04-11T11:44:02.184Z,44.32
2018-04-11T11:45:02.180Z,44.23
2018-04-11T11:46:02.174Z,44.23
2018-04-11T11:47:02.168Z,44.13
2018-04-11T11:48:02.171Z,44.13
2018-04-11T11:49:02.160Z,44.23
2018-04-11T11:50:02.156Z,44.42
2018-04-11T11:51:02.147Z,44.51
2018-04-11T11:52:02.184Z,44.61
2018-04-11T11:53:02.141Z,44.42
2018-04-11T11:54:02.135Z,44.61
2018-04-11T11:55:02.126Z,44.61
2018-04-11T11:56:02.129Z,44.90
2018-04-11T11:57:02.118Z,44.61
2018-04-11T11:58:02.121Z,44.61
2018-04-11T11:59:02.106Z,44.90
2018-04-11T12:00:02.101Z,44.90
2018-04-11T12:01:02.098Z,44.81
2018-04-11T12:02:02.092Z,44.49
2018-04-11T12:03:02.102Z,44.49
2018-04-11T12:04:02.084Z,44.30
2018-04-11T12:05:02.076Z,44.59
2018-04-11T12:06:02.072Z,44.40
2018-04-11T12:07:02.079Z,44.59
2018-04-11T12:08:02.061Z,44.49
2018-04-11T12:09:02.055Z,44.98
2018-04-11T12:10:02.051Z,44.78
2018-04-11T12:11:02.044Z,44.78
2018-04-11T12:12:02.037Z,44.98
2018-04-11T12:13:02.032Z,44.98
2018-04-11T12:14:02.036Z,44.98
2018-04-11T12:15:02.030Z,44.98
2018-04-11T12:16:02.028Z,44.98
2018-04-11T12:17:02.018Z,45.07
2018-04-11T12:18:02.008Z,44.98
2018-04-11T12:19:02.003Z,44.98
2018-04-11T12:20:01.999Z,44.78
2018-04-11T12:21:01.993Z,44.78
2018-04-11T12:22:01.987Z,44.78
2018-04-11T12:23:01.984Z,44.59
2018-04-11T12:24:01.975Z,44.59
2018-04-11T12:25:02.003Z,44.68
2018-04-11T12:26:01.986Z,44.78
2018-04-11T12:27:01.971Z,44.78
2018-04-11T12:28:01.955Z,44.78
2018-04-11T12:29:01.954Z,44.98
2018-04-11T12:30:01.941Z,45.17
2018-04-11T12:31:01.938Z,45.17
2018-04-11T12:32:01.951Z,45.07
2018-04-11T12:33:01.931Z,45.07
2018-04-11T12:34:01.931Z,44.98
2018-04-11T12:35:01.917Z,45.27
2018-04-11T12:36:01.913Z,45.17
2018-04-11T12:37:01.907Z,45.07
2018-04-11T12:38:01.901Z,45.17
2018-04-11T12:39:01.895Z,45.07
2018-04-11T12:40:01.893Z,45.15
2018-04-11T12:41:01.892Z,45.27
2018-04-11T12:42:01.881Z,45.17
2018-04-11T12:43:01.880Z,44.88
2018-04-11T12:44:01.868Z,45.15
2018-04-11T12:45:01.866Z,44.88
2018-04-11T12:46:01.859Z,44.76
2018-04-11T12:47:01.852Z,45.15
2018-04-11T12:48:01.849Z,45.05
2018-04-11T12:49:01.843Z,45.15
2018-04-11T12:50:01.842Z,45.25
2018-04-11T12:51:01.831Z,45.44
2018-04-11T12:52:01.830Z,45.54